sensor_id;sensor_type;location;lat;lon;timestamp;temperature;humidity
11426;DHT22;5769;47.998;7.788;2023-06-05T00:01:19;19.40;91.40
11426;DHT22;5769;47.998;7.788;2023-06-05T00:03:46;19.60;91.40
11426;DHT22;5769;47.998;7.788;2023-06-05T00:06:14;19.40;91.40
11426;DHT22;5769;47.998;7.788;2023-06-05T00:08:40;19.40;91.30
11426;DHT22;5769;47.998;7.788;2023-06-05T00:11:07;19.50;91.40
11426;DHT22;5769;47.998;7.788;2023-06-05T00:13:34;19.50;91.40
11426;DHT22;5769;47.998;7.788;2023-06-05T00:16:00;19.60;91.40
11426;DHT22;5769;47.998;7.788;2023-06-05T00:18:30;19.50;91.40
11426;DHT22;5769;47.998;7.788;2023-06-05T00:20:56;19.40;91.40
11426;DHT22;5769;47.998;7.788;2023-06-05T00:23:23;19.50;91.40
11426;DHT22;5769;47.998;7.788;2023-06-05T00:25:50;19.50;91.40
11426;DHT22;5769;47.998;7.788;2023-06-05T00:28:16;19.50;91.40
11426;DHT22;5769;47.998;7.788;2023-06-05T00:30:43;19.50;91.40
11426;DHT22;5769;47.998;7.788;2023-06-05T00:33:10;19.40;91.40
11426;DHT22;5769;47.998;7.788;2023-06-05T00:35:38;19.40;91.40
11426;DHT22;5769;47.998;7.788;2023-06-05T00:38:05;19.40;91.40
11426;DHT22;5769;47.998;7.788;2023-06-05T00:40:32;19.60;91.40
11426;DHT22;5769;47.998;7.788;2023-06-05T00:42:59;19.50;91.40
11426;DHT22;5769;47.998;7.788;2023-06-05T00:45:26;19.40;91.40
11426;DHT22;5769;47.998;7.788;2023-06-05T00:47:52;19.50;91.40
11426;DHT22;5769;47.998;7.788;2023-06-05T00:50:19;19.50;91.40
11426;DHT22;5769;47.998;7.788;2023-06-05T00:52:49;19.60;91.50
11426;DHT22;5769;47.998;7.788;2023-06-05T00:55:16;19.40;91.40
11426;DHT22;5769;47.998;7.788;2023-06-05T00:57:43;19.60;91.50
11426;DHT22;5769;47.998;7.788;2023-06-05T01:00:11;19.40;91.40
11426;DHT22;5769;47.998;7.788;2023-06-05T01:02:39;19.40;91.40
11426;DHT22;5769;47.998;7.788;2023-06-05T01:05:07;19.40;91.40
11426;DHT22;5769;47.998;7.788;2023-06-05T01:07:34;19.40;91.40
11426;DHT22;5769;47.998;7.788;2023-06-05T01:10:06;19.40;91.40
11426;DHT22;5769;47.998;7.788;2023-06-05T01:12:38;19.50;91.40
11426;DHT22;5769;47.998;7.788;2023-06-05T01:15:07;19.40;91.40
11426;DHT22;5769;47.998;7.788;2023-06-05T01:17:34;19.50;91.40
11426;DHT22;5769;47.998;7.788;2023-06-05T01:20:02;19.50;91.40
11426;DHT22;5769;47.998;7.788;2023-06-05T01:22:32;19.50;91.50
11426;DHT22;5769;47.998;7.788;2023-06-05T01:25:01;19.60;91.50
11426;DHT22;5769;47.998;7.788;2023-06-05T01:27:32;19.40;91.50
11426;DHT22;5769;47.998;7.788;2023-06-05T01:30:02;19.60;91.50
11426;DHT22;5769;47.998;7.788;2023-06-05T01:32:34;19.50;91.50
11426;DHT22;5769;47.998;7.788;2023-06-05T01:35:04;19.50;91.50
11426;DHT22;5769;47.998;7.788;2023-06-05T01:37:32;19.50;91.50
11426;DHT22;5769;47.998;7.788;2023-06-05T01:40:08;19.40;91.50
11426;DHT22;5769;47.998;7.788;2023-06-05T01:42:37;19.50;91.50
11426;DHT22;5769;47.998;7.788;2023-06-05T01:45:06;19.50;91.50
11426;DHT22;5769;47.998;7.788;2023-06-05T01:47:34;19.40;91.50
11426;DHT22;5769;47.998;7.788;2023-06-05T01:50:01;19.60;91.50
11426;DHT22;5769;47.998;7.788;2023-06-05T01:52:28;19.50;91.40
11426;DHT22;5769;47.998;7.788;2023-06-05T01:54:56;19.60;91.50
11426;DHT22;5769;47.998;7.788;2023-06-05T01:57:26;19.60;91.50
11426;DHT22;5769;47.998;7.788;2023-06-05T01:59:54;19.40;91.40
11426;DHT22;5769;47.998;7.788;2023-06-05T02:02:21;19.50;91.40
11426;DHT22;5769;47.998;7.788;2023-06-05T02:04:49;19.50;91.40
11426;DHT22;5769;47.998;7.788;2023-06-05T02:07:16;19.60;91.50
11426;DHT22;5769;47.998;7.788;2023-06-05T02:09:42;19.50;91.40
11426;DHT22;5769;47.998;7.788;2023-06-05T02:12:09;19.50;91.40
11426;DHT22;5769;47.998;7.788;2023-06-05T02:14:40;19.40;91.30
11426;DHT22;5769;47.998;7.788;2023-06-05T02:17:10;19.40;91.30
11426;DHT22;5769;47.998;7.788;2023-06-05T02:19:38;19.60;91.40
11426;DHT22;5769;47.998;7.788;2023-06-05T02:22:05;19.40;91.40
11426;DHT22;5769;47.998;7.788;2023-06-05T02:24:34;19.50;91.30
11426;DHT22;5769;47.998;7.788;2023-06-05T02:27:01;19.50;91.40
11426;DHT22;5769;47.998;7.788;2023-06-05T02:29:27;19.50;91.30
11426;DHT22;5769;47.998;7.788;2023-06-05T02:31:55;19.40;91.30
11426;DHT22;5769;47.998;7.788;2023-06-05T02:34:22;19.50;91.40
11426;DHT22;5769;47.998;7.788;2023-06-05T02:36:50;19.50;91.40
11426;DHT22;5769;47.998;7.788;2023-06-05T02:39:16;19.50;91.40
11426;DHT22;5769;47.998;7.788;2023-06-05T02:41:43;19.50;91.40
11426;DHT22;5769;47.998;7.788;2023-06-05T02:44:10;19.50;91.40
11426;DHT22;5769;47.998;7.788;2023-06-05T02:46:37;19.40;91.40
11426;DHT22;5769;47.998;7.788;2023-06-05T02:49:05;19.60;91.40
11426;DHT22;5769;47.998;7.788;2023-06-05T02:51:32;19.50;91.40
11426;DHT22;5769;47.998;7.788;2023-06-05T02:53:58;19.50;91.40
11426;DHT22;5769;47.998;7.788;2023-06-05T02:56:25;19.50;91.40
11426;DHT22;5769;47.998;7.788;2023-06-05T02:58:52;19.60;91.40
11426;DHT22;5769;47.998;7.788;2023-06-05T03:01:22;19.40;91.40
11426;DHT22;5769;47.998;7.788;2023-06-05T03:03:50;19.50;91.40
11426;DHT22;5769;47.998;7.788;2023-06-05T03:06:19;19.60;91.40
11426;DHT22;5769;47.998;7.788;2023-06-05T03:08:45;19.40;91.30
11426;DHT22;5769;47.998;7.788;2023-06-05T03:11:12;19.40;91.30
11426;DHT22;5769;47.998;7.788;2023-06-05T03:13:39;19.60;91.40
11426;DHT22;5769;47.998;7.788;2023-06-05T03:16:05;19.60;91.40
11426;DHT22;5769;47.998;7.788;2023-06-05T03:18:32;19.50;91.40
11426;DHT22;5769;47.998;7.788;2023-06-05T03:20:59;19.50;91.40
11426;DHT22;5769;47.998;7.788;2023-06-05T03:23:28;19.50;91.30
11426;DHT22;5769;47.998;7.788;2023-06-05T03:25:55;19.60;91.40
11426;DHT22;5769;47.998;7.788;2023-06-05T03:28:23;19.50;91.40
11426;DHT22;5769;47.998;7.788;2023-06-05T03:30:50;19.50;91.40
11426;DHT22;5769;47.998;7.788;2023-06-05T03:33:16;19.50;91.40
11426;DHT22;5769;47.998;7.788;2023-06-05T03:35:43;19.60;91.40
11426;DHT22;5769;47.998;7.788;2023-06-05T03:38:12;19.40;91.30
11426;DHT22;5769;47.998;7.788;2023-06-05T03:40:40;19.50;91.30
11426;DHT22;5769;47.998;7.788;2023-06-05T03:43:07;19.40;91.30
11426;DHT22;5769;47.998;7.788;2023-06-05T03:45:34;19.50;91.40
11426;DHT22;5769;47.998;7.788;2023-06-05T03:48:01;19.50;91.30
11426;DHT22;5769;47.998;7.788;2023-06-05T03:50:28;19.60;91.30
11426;DHT22;5769;47.998;7.788;2023-06-05T03:52:56;19.40;91.30
11426;DHT22;5769;47.998;7.788;2023-06-05T03:55:29;19.40;91.20
11426;DHT22;5769;47.998;7.788;2023-06-05T03:58:10;19.40;91.20
11426;DHT22;5769;47.998;7.788;2023-06-05T04:00:39;19.50;91.20
11426;DHT22;5769;47.998;7.788;2023-06-05T04:03:05;19.50;91.00
11426;DHT22;5769;47.998;7.788;2023-06-05T04:05:34;19.50;90.80
11426;DHT22;5769;47.998;7.788;2023-06-05T04:08:00;19.40;90.60
11426;DHT22;5769;47.998;7.788;2023-06-05T04:10:27;19.60;90.20
11426;DHT22;5769;47.998;7.788;2023-06-05T04:12:54;19.50;90.10
11426;DHT22;5769;47.998;7.788;2023-06-05T04:15:23;19.40;89.90
11426;DHT22;5769;47.998;7.788;2023-06-05T04:17:50;19.50;89.90
11426;DHT22;5769;47.998;7.788;2023-06-05T04:20:17;19.50;89.80
11426;DHT22;5769;47.998;7.788;2023-06-05T04:22:44;19.60;89.60
11426;DHT22;5769;47.998;7.788;2023-06-05T04:25:12;19.40;89.50
11426;DHT22;5769;47.998;7.788;2023-06-05T04:27:39;19.60;89.50
11426;DHT22;5769;47.998;7.788;2023-06-05T04:30:07;19.60;89.50
11426;DHT22;5769;47.998;7.788;2023-06-05T04:32:37;19.60;89.20
11426;DHT22;5769;47.998;7.788;2023-06-05T04:35:04;19.40;88.90
11426;DHT22;5769;47.998;7.788;2023-06-05T04:37:31;19.40;88.70
11426;DHT22;5769;47.998;7.788;2023-06-05T04:39:58;19.50;88.70
11426;DHT22;5769;47.998;7.788;2023-06-05T04:42:25;19.60;88.80
11426;DHT22;5769;47.998;7.788;2023-06-05T04:44:55;19.50;88.70
11426;DHT22;5769;47.998;7.788;2023-06-05T04:47:22;19.40;88.60
11426;DHT22;5769;47.998;7.788;2023-06-05T04:49:50;19.40;88.70
11426;DHT22;5769;47.998;7.788;2023-06-05T04:52:18;19.60;88.80
11426;DHT22;5769;47.998;7.788;2023-06-05T04:54:46;19.60;88.70
11426;DHT22;5769;47.998;7.788;2023-06-05T04:57:14;19.40;88.60
11426;DHT22;5769;47.998;7.788;2023-06-05T04:59:41;19.40;88.60
11426;DHT22;5769;47.998;7.788;2023-06-05T05:02:08;19.60;88.50
11426;DHT22;5769;47.998;7.788;2023-06-05T05:04:35;19.40;88.50
11426;DHT22;5769;47.998;7.788;2023-06-05T05:07:03;19.50;88.40
11426;DHT22;5769;47.998;7.788;2023-06-05T05:09:31;19.60;88.30
11426;DHT22;5769;47.998;7.788;2023-06-05T05:11:58;19.50;88.10
11426;DHT22;5769;47.998;7.788;2023-06-05T05:14:25;19.60;88.10
11426;DHT22;5769;47.998;7.788;2023-06-05T05:16:52;19.50;88.00
11426;DHT22;5769;47.998;7.788;2023-06-05T05:19:20;19.50;88.00
11426;DHT22;5769;47.998;7.788;2023-06-05T05:21:47;19.40;87.90
11426;DHT22;5769;47.998;7.788;2023-06-05T05:24:15;19.50;88.00
11426;DHT22;5769;47.998;7.788;2023-06-05T05:26:42;19.60;88.10
11426;DHT22;5769;47.998;7.788;2023-06-05T05:29:09;19.40;88.00
11426;DHT22;5769;47.998;7.788;2023-06-05T05:31:35;19.60;88.20
11426;DHT22;5769;47.998;7.788;2023-06-05T05:34:02;19.50;88.10
11426;DHT22;5769;47.998;7.788;2023-06-05T05:36:29;19.60;88.30
11426;DHT22;5769;47.998;7.788;2023-06-05T05:38:58;19.40;88.10
11426;DHT22;5769;47.998;7.788;2023-06-05T05:41:26;19.60;88.20
11426;DHT22;5769;47.998;7.788;2023-06-05T05:43:53;19.60;88.20
11426;DHT22;5769;47.998;7.788;2023-06-05T05:46:19;19.50;88.20
11426;DHT22;5769;47.998;7.788;2023-06-05T05:48:46;19.50;88.10
11426;DHT22;5769;47.998;7.788;2023-06-05T05:51:13;19.50;88.10
11426;DHT22;5769;47.998;7.788;2023-06-05T05:53:40;19.40;88.00
11426;DHT22;5769;47.998;7.788;2023-06-05T05:56:07;19.50;88.10
11426;DHT22;5769;47.998;7.788;2023-06-05T05:58:35;19.40;88.10
11426;DHT22;5769;47.998;7.788;2023-06-05T06:01:01;19.50;88.20
11426;DHT22;5769;47.998;7.788;2023-06-05T06:03:28;19.60;88.20
11426;DHT22;5769;47.998;7.788;2023-06-05T06:05:55;19.50;88.20
11426;DHT22;5769;47.998;7.788;2023-06-05T06:08:30;19.50;88.20
11426;DHT22;5769;47.998;7.788;2023-06-05T06:10:58;19.50;88.20
11426;DHT22;5769;47.998;7.788;2023-06-05T06:13:25;19.60;88.30
11426;DHT22;5769;47.998;7.788;2023-06-05T06:15:53;19.40;88.10
11426;DHT22;5769;47.998;7.788;2023-06-05T06:18:19;19.60;88.30
11426;DHT22;5769;47.998;7.788;2023-06-05T06:20:46;19.40;88.10
11426;DHT22;5769;47.998;7.788;2023-06-05T06:23:16;19.50;88.20
11426;DHT22;5769;47.998;7.788;2023-06-05T06:25:42;19.50;88.20
11426;DHT22;5769;47.998;7.788;2023-06-05T06:28:09;19.40;88.20
11426;DHT22;5769;47.998;7.788;2023-06-05T06:30:36;19.50;88.30
11426;DHT22;5769;47.998;7.788;2023-06-05T06:33:04;19.40;88.20
11426;DHT22;5769;47.998;7.788;2023-06-05T06:35:30;19.40;88.20
11426;DHT22;5769;47.998;7.788;2023-06-05T06:37:58;19.40;88.40
11426;DHT22;5769;47.998;7.788;2023-06-05T06:40:25;19.40;88.30
11426;DHT22;5769;47.998;7.788;2023-06-05T06:42:54;19.50;88.30
11426;DHT22;5769;47.998;7.788;2023-06-05T06:45:21;19.50;88.40
11426;DHT22;5769;47.998;7.788;2023-06-05T06:47:48;19.50;88.30
11426;DHT22;5769;47.998;7.788;2023-06-05T06:50:16;19.40;88.20
11426;DHT22;5769;47.998;7.788;2023-06-05T06:52:43;19.50;88.30
11426;DHT22;5769;47.998;7.788;2023-06-05T06:55:10;19.60;88.30
11426;DHT22;5769;47.998;7.788;2023-06-05T06:57:37;19.60;88.30
11426;DHT22;5769;47.998;7.788;2023-06-05T07:00:05;19.50;88.30
11426;DHT22;5769;47.998;7.788;2023-06-05T07:02:35;19.60;88.30
11426;DHT22;5769;47.998;7.788;2023-06-05T07:05:03;19.50;88.30
11426;DHT22;5769;47.998;7.788;2023-06-05T07:07:32;19.50;88.30
11426;DHT22;5769;47.998;7.788;2023-06-05T07:09:59;19.50;88.20
11426;DHT22;5769;47.998;7.788;2023-06-05T07:12:26;19.60;88.30
11426;DHT22;5769;47.998;7.788;2023-06-05T07:14:53;19.50;88.20
11426;DHT22;5769;47.998;7.788;2023-06-05T07:17:20;19.50;88.20
11426;DHT22;5769;47.998;7.788;2023-06-05T07:19:46;19.50;88.20
11426;DHT22;5769;47.998;7.788;2023-06-05T07:22:13;19.50;88.20
11426;DHT22;5769;47.998;7.788;2023-06-05T07:24:42;19.60;88.30
11426;DHT22;5769;47.998;7.788;2023-06-05T07:27:09;19.40;88.20
11426;DHT22;5769;47.998;7.788;2023-06-05T07:29:36;19.50;88.20
11426;DHT22;5769;47.998;7.788;2023-06-05T07:32:03;19.50;88.30
11426;DHT22;5769;47.998;7.788;2023-06-05T07:34:31;19.40;88.20
11426;DHT22;5769;47.998;7.788;2023-06-05T07:36:59;19.60;88.40
11426;DHT22;5769;47.998;7.788;2023-06-05T07:39:26;19.60;88.50
11426;DHT22;5769;47.998;7.788;2023-06-05T07:41:55;19.40;88.30
11426;DHT22;5769;47.998;7.788;2023-06-05T07:44:22;19.40;88.30
11426;DHT22;5769;47.998;7.788;2023-06-05T07:46:49;19.50;88.40
11426;DHT22;5769;47.998;7.788;2023-06-05T07:49:16;19.50;88.50
11426;DHT22;5769;47.998;7.788;2023-06-05T07:51:43;19.60;88.50
11426;DHT22;5769;47.998;7.788;2023-06-05T07:54:13;19.40;89.00
11426;DHT22;5769;47.998;7.788;2023-06-05T07:56:40;19.50;88.50
11426;DHT22;5769;47.998;7.788;2023-06-05T07:59:09;19.40;88.40
11426;DHT22;5769;47.998;7.788;2023-06-05T08:01:36;19.50;88.50
11426;DHT22;5769;47.998;7.788;2023-06-05T08:04:03;19.40;88.40
11426;DHT22;5769;47.998;7.788;2023-06-05T08:06:30;19.40;88.40
11426;DHT22;5769;47.998;7.788;2023-06-05T08:08:57;19.40;88.40
11426;DHT22;5769;47.998;7.788;2023-06-05T08:11:24;19.40;88.40
11426;DHT22;5769;47.998;7.788;2023-06-05T08:13:52;19.50;88.50
11426;DHT22;5769;47.998;7.788;2023-06-05T08:16:20;19.40;88.50
11426;DHT22;5769;47.998;7.788;2023-06-05T08:18:46;19.50;88.50
11426;DHT22;5769;47.998;7.788;2023-06-05T08:21:13;19.40;88.50
11426;DHT22;5769;47.998;7.788;2023-06-05T08:23:41;19.50;88.50
11426;DHT22;5769;47.998;7.788;2023-06-05T08:26:07;19.60;88.70
11426;DHT22;5769;47.998;7.788;2023-06-05T08:28:37;19.40;88.60
11426;DHT22;5769;47.998;7.788;2023-06-05T08:31:04;19.60;88.60
11426;DHT22;5769;47.998;7.788;2023-06-05T08:33:33;19.50;88.50
11426;DHT22;5769;47.998;7.788;2023-06-05T08:36:00;19.40;88.50
11426;DHT22;5769;47.998;7.788;2023-06-05T08:38:28;19.60;88.70
11426;DHT22;5769;47.998;7.788;2023-06-05T08:41:06;19.60;88.60
11426;DHT22;5769;47.998;7.788;2023-06-05T08:43:36;19.50;88.60
11426;DHT22;5769;47.998;7.788;2023-06-05T08:46:04;19.40;88.50
11426;DHT22;5769;47.998;7.788;2023-06-05T08:48:34;19.50;88.50
11426;DHT22;5769;47.998;7.788;2023-06-05T08:51:05;19.50;88.60
11426;DHT22;5769;47.998;7.788;2023-06-05T08:53:33;19.40;88.50
11426;DHT22;5769;47.998;7.788;2023-06-05T08:56:01;19.50;88.50
11426;DHT22;5769;47.998;7.788;2023-06-05T08:58:28;19.50;88.60
11426;DHT22;5769;47.998;7.788;2023-06-05T09:00:55;19.50;88.60
11426;DHT22;5769;47.998;7.788;2023-06-05T09:03:22;19.40;88.50
11426;DHT22;5769;47.998;7.788;2023-06-05T09:05:52;19.50;88.60
11426;DHT22;5769;47.998;7.788;2023-06-05T09:08:27;19.60;88.70
11426;DHT22;5769;47.998;7.788;2023-06-05T09:10:54;19.50;88.60
11426;DHT22;5769;47.998;7.788;2023-06-05T09:13:20;19.50;88.60
11426;DHT22;5769;47.998;7.788;2023-06-05T09:15:50;19.50;88.70
11426;DHT22;5769;47.998;7.788;2023-06-05T09:18:17;19.40;88.50
11426;DHT22;5769;47.998;7.788;2023-06-05T09:20:44;19.50;88.70
11426;DHT22;5769;47.998;7.788;2023-06-05T09:23:24;19.40;88.60
11426;DHT22;5769;47.998;7.788;2023-06-05T09:25:52;19.50;88.60
11426;DHT22;5769;47.998;7.788;2023-06-05T09:28:19;19.50;88.60
11426;DHT22;5769;47.998;7.788;2023-06-05T09:31:00;19.50;88.60
11426;DHT22;5769;47.998;7.788;2023-06-05T09:33:28;19.50;88.70
11426;DHT22;5769;47.998;7.788;2023-06-05T09:36:05;19.50;88.60
11426;DHT22;5769;47.998;7.788;2023-06-05T09:38:34;19.60;88.70
11426;DHT22;5769;47.998;7.788;2023-06-05T09:41:02;19.60;88.70
11426;DHT22;5769;47.998;7.788;2023-06-05T09:43:29;19.60;88.70
11426;DHT22;5769;47.998;7.788;2023-06-05T09:45:56;19.50;88.70
11426;DHT22;5769;47.998;7.788;2023-06-05T09:48:23;19.50;88.70
11426;DHT22;5769;47.998;7.788;2023-06-05T09:50:51;19.50;88.70
11426;DHT22;5769;47.998;7.788;2023-06-05T09:53:17;19.60;88.70
11426;DHT22;5769;47.998;7.788;2023-06-05T09:55:48;19.60;88.80
11426;DHT22;5769;47.998;7.788;2023-06-05T09:58:15;19.50;88.70
11426;DHT22;5769;47.998;7.788;2023-06-05T10:00:44;19.40;88.70
11426;DHT22;5769;47.998;7.788;2023-06-05T10:03:14;19.50;88.70
11426;DHT22;5769;47.998;7.788;2023-06-05T10:05:44;19.50;88.90
11426;DHT22;5769;47.998;7.788;2023-06-05T10:08:11;19.50;88.80
11426;DHT22;5769;47.998;7.788;2023-06-05T10:10:38;19.50;88.80
11426;DHT22;5769;47.998;7.788;2023-06-05T10:13:07;19.50;88.80
11426;DHT22;5769;47.998;7.788;2023-06-05T10:15:35;19.60;88.90
11426;DHT22;5769;47.998;7.788;2023-06-05T10:18:04;19.50;88.90
11426;DHT22;5769;47.998;7.788;2023-06-05T10:20:33;19.60;88.90
11426;DHT22;5769;47.998;7.788;2023-06-05T10:23:01;19.60;88.90
11426;DHT22;5769;47.998;7.788;2023-06-05T10:25:29;19.60;88.90
11426;DHT22;5769;47.998;7.788;2023-06-05T10:28:12;19.50;88.90
11426;DHT22;5769;47.998;7.788;2023-06-05T10:31:11;19.60;88.90
11426;DHT22;5769;47.998;7.788;2023-06-05T10:33:55;19.60;89.60
11426;DHT22;5769;47.998;7.788;2023-06-05T10:36:39;19.60;89.00
11426;DHT22;5769;47.998;7.788;2023-06-05T10:39:09;19.50;89.00
11426;DHT22;5769;47.998;7.788;2023-06-05T10:41:37;19.50;88.90
11426;DHT22;5769;47.998;7.788;2023-06-05T10:44:05;19.50;89.00
11426;DHT22;5769;47.998;7.788;2023-06-05T10:46:33;19.60;89.00
11426;DHT22;5769;47.998;7.788;2023-06-05T10:49:16;19.50;89.00
11426;DHT22;5769;47.998;7.788;2023-06-05T10:51:45;19.50;88.90
11426;DHT22;5769;47.998;7.788;2023-06-05T10:54:13;19.60;88.90
11426;DHT22;5769;47.998;7.788;2023-06-05T10:56:55;19.40;88.90
11426;DHT22;5769;47.998;7.788;2023-06-05T10:59:25;19.60;88.90
11426;DHT22;5769;47.998;7.788;2023-06-05T11:02:22;19.60;88.90
11426;DHT22;5769;47.998;7.788;2023-06-05T11:05:08;19.60;88.90
11426;DHT22;5769;47.998;7.788;2023-06-05T11:07:38;19.50;88.80
11426;DHT22;5769;47.998;7.788;2023-06-05T11:10:07;19.60;88.90
11426;DHT22;5769;47.998;7.788;2023-06-05T11:12:58;19.40;88.90
11426;DHT22;5769;47.998;7.788;2023-06-05T11:15:40;19.60;89.00
11426;DHT22;5769;47.998;7.788;2023-06-05T11:18:26;19.60;89.10
11426;DHT22;5769;47.998;7.788;2023-06-05T11:20:52;19.60;89.20
11426;DHT22;5769;47.998;7.788;2023-06-05T11:23:19;19.50;89.10
11426;DHT22;5769;47.998;7.788;2023-06-05T11:25:48;19.40;89.10
11426;DHT22;5769;47.998;7.788;2023-06-05T11:28:44;19.60;89.20
11426;DHT22;5769;47.998;7.788;2023-06-05T11:31:12;19.50;89.10
11426;DHT22;5769;47.998;7.788;2023-06-05T11:33:39;19.50;89.10
11426;DHT22;5769;47.998;7.788;2023-06-05T11:36:06;19.50;89.20
11426;DHT22;5769;47.998;7.788;2023-06-05T11:38:37;19.50;89.10
11426;DHT22;5769;47.998;7.788;2023-06-05T11:41:08;19.50;89.20
11426;DHT22;5769;47.998;7.788;2023-06-05T11:43:42;19.60;89.20
11426;DHT22;5769;47.998;7.788;2023-06-05T11:46:09;19.50;89.10
11426;DHT22;5769;47.998;7.788;2023-06-05T11:48:42;19.50;89.20
11426;DHT22;5769;47.998;7.788;2023-06-05T11:51:09;19.60;89.20
11426;DHT22;5769;47.998;7.788;2023-06-05T11:53:44;19.60;89.30
11426;DHT22;5769;47.998;7.788;2023-06-05T11:56:14;19.60;90.10
11426;DHT22;5769;47.998;7.788;2023-06-05T11:58:43;19.50;89.50
11426;DHT22;5769;47.998;7.788;2023-06-05T12:01:12;19.50;89.40
11426;DHT22;5769;47.998;7.788;2023-06-05T12:03:45;19.60;89.40
11426;DHT22;5769;47.998;7.788;2023-06-05T12:06:12;19.60;89.40
11426;DHT22;5769;47.998;7.788;2023-06-05T12:08:40;19.60;89.60
11426;DHT22;5769;47.998;7.788;2023-06-05T12:11:20;19.50;89.40
11426;DHT22;5769;47.998;7.788;2023-06-05T12:13:48;19.60;89.50
11426;DHT22;5769;47.998;7.788;2023-06-05T12:16:16;19.60;89.40
11426;DHT22;5769;47.998;7.788;2023-06-05T12:18:44;19.60;89.40
11426;DHT22;5769;47.998;7.788;2023-06-05T12:21:19;19.60;89.30
11426;DHT22;5769;47.998;7.788;2023-06-05T12:23:47;19.50;89.40
11426;DHT22;5769;47.998;7.788;2023-06-05T12:26:14;19.60;89.40
11426;DHT22;5769;47.998;7.788;2023-06-05T12:28:42;19.60;89.30
11426;DHT22;5769;47.998;7.788;2023-06-05T12:31:09;19.50;89.40
11426;DHT22;5769;47.998;7.788;2023-06-05T12:33:48;19.60;89.40
11426;DHT22;5769;47.998;7.788;2023-06-05T12:36:15;19.60;89.30
11426;DHT22;5769;47.998;7.788;2023-06-05T12:38:42;19.50;89.20
11426;DHT22;5769;47.998;7.788;2023-06-05T12:41:10;19.40;89.20
11426;DHT22;5769;47.998;7.788;2023-06-05T12:43:37;19.50;89.30
11426;DHT22;5769;47.998;7.788;2023-06-05T12:46:05;19.60;89.40
11426;DHT22;5769;47.998;7.788;2023-06-05T12:48:33;19.60;89.30
11426;DHT22;5769;47.998;7.788;2023-06-05T12:51:01;19.50;89.30
11426;DHT22;5769;47.998;7.788;2023-06-05T12:53:28;19.50;89.40
11426;DHT22;5769;47.998;7.788;2023-06-05T12:55:54;19.60;89.50
11426;DHT22;5769;47.998;7.788;2023-06-05T12:58:21;19.60;89.40
11426;DHT22;5769;47.998;7.788;2023-06-05T13:00:48;19.60;89.50
11426;DHT22;5769;47.998;7.788;2023-06-05T13:03:15;19.60;89.40
11426;DHT22;5769;47.998;7.788;2023-06-05T13:05:42;19.50;89.40
11426;DHT22;5769;47.998;7.788;2023-06-05T13:08:10;19.50;89.40
11426;DHT22;5769;47.998;7.788;2023-06-05T13:10:37;19.40;89.30
11426;DHT22;5769;47.998;7.788;2023-06-05T13:13:03;19.50;89.40
11426;DHT22;5769;47.998;7.788;2023-06-05T13:15:30;19.50;89.40
11426;DHT22;5769;47.998;7.788;2023-06-05T13:17:56;19.50;89.40
11426;DHT22;5769;47.998;7.788;2023-06-05T13:20:23;19.60;89.40
11426;DHT22;5769;47.998;7.788;2023-06-05T13:22:50;19.50;89.40
11426;DHT22;5769;47.998;7.788;2023-06-05T13:25:18;19.60;89.30
11426;DHT22;5769;47.998;7.788;2023-06-05T13:27:45;19.60;89.30
11426;DHT22;5769;47.998;7.788;2023-06-05T13:30:12;19.60;89.40
11426;DHT22;5769;47.998;7.788;2023-06-05T13:32:38;19.50;89.40
11426;DHT22;5769;47.998;7.788;2023-06-05T13:35:07;19.50;89.40
11426;DHT22;5769;47.998;7.788;2023-06-05T13:37:35;19.50;89.40
11426;DHT22;5769;47.998;7.788;2023-06-05T13:40:02;19.50;89.40
11426;DHT22;5769;47.998;7.788;2023-06-05T13:42:32;19.50;89.40
11426;DHT22;5769;47.998;7.788;2023-06-05T13:44:59;19.40;89.40
11426;DHT22;5769;47.998;7.788;2023-06-05T13:47:26;19.40;89.40
11426;DHT22;5769;47.998;7.788;2023-06-05T13:49:52;19.40;89.50
11426;DHT22;5769;47.998;7.788;2023-06-05T13:52:20;19.60;89.50
11426;DHT22;5769;47.998;7.788;2023-06-05T13:54:47;19.50;89.50
11426;DHT22;5769;47.998;7.788;2023-06-05T13:57:13;19.50;89.50
11426;DHT22;5769;47.998;7.788;2023-06-05T13:59:44;19.60;89.60
11426;DHT22;5769;47.998;7.788;2023-06-05T14:02:10;19.50;89.60
11426;DHT22;5769;47.998;7.788;2023-06-05T14:04:39;19.60;89.70
11426;DHT22;5769;47.998;7.788;2023-06-05T14:07:05;19.60;90.10
11426;DHT22;5769;47.998;7.788;2023-06-05T14:09:32;19.50;89.60
11426;DHT22;5769;47.998;7.788;2023-06-05T14:12:00;19.50;89.60
11426;DHT22;5769;47.998;7.788;2023-06-05T14:14:27;19.50;89.50
11426;DHT22;5769;47.998;7.788;2023-06-05T14:16:55;19.50;89.50
11426;DHT22;5769;47.998;7.788;2023-06-05T14:19:21;19.60;89.60
11426;DHT22;5769;47.998;7.788;2023-06-05T14:21:48;19.50;90.10
11426;DHT22;5769;47.998;7.788;2023-06-05T14:24:15;19.50;89.50
11426;DHT22;5769;47.998;7.788;2023-06-05T14:26:42;19.50;89.40
11426;DHT22;5769;47.998;7.788;2023-06-05T14:29:08;19.50;89.40
11426;DHT22;5769;47.998;7.788;2023-06-05T14:31:35;19.60;89.60
11426;DHT22;5769;47.998;7.788;2023-06-05T14:34:04;19.60;89.60
11426;DHT22;5769;47.998;7.788;2023-06-05T14:36:33;19.60;89.60
11426;DHT22;5769;47.998;7.788;2023-06-05T14:38:59;19.60;89.60
11426;DHT22;5769;47.998;7.788;2023-06-05T14:41:28;19.60;89.60
11426;DHT22;5769;47.998;7.788;2023-06-05T14:43:55;19.50;89.50
11426;DHT22;5769;47.998;7.788;2023-06-05T14:46:21;19.60;89.60
11426;DHT22;5769;47.998;7.788;2023-06-05T14:48:48;19.50;89.50
11426;DHT22;5769;47.998;7.788;2023-06-05T14:51:16;19.50;89.50
11426;DHT22;5769;47.998;7.788;2023-06-05T14:53:43;19.50;89.60
11426;DHT22;5769;47.998;7.788;2023-06-05T14:56:09;19.60;89.60
11426;DHT22;5769;47.998;7.788;2023-06-05T14:58:36;19.50;89.50
11426;DHT22;5769;47.998;7.788;2023-06-05T15:01:03;19.50;89.60
11426;DHT22;5769;47.998;7.788;2023-06-05T15:03:29;19.50;89.60
11426;DHT22;5769;47.998;7.788;2023-06-05T15:05:56;19.50;89.40
11426;DHT22;5769;47.998;7.788;2023-06-05T15:08:24;19.50;90.10
11426;DHT22;5769;47.998;7.788;2023-06-05T15:10:50;19.50;89.50
11426;DHT22;5769;47.998;7.788;2023-06-05T15:13:17;19.60;89.60
11426;DHT22;5769;47.998;7.788;2023-06-05T15:15:45;19.60;89.50
11426;DHT22;5769;47.998;7.788;2023-06-05T15:18:12;19.50;89.50
11426;DHT22;5769;47.998;7.788;2023-06-05T15:20:38;19.60;89.60
11426;DHT22;5769;47.998;7.788;2023-06-05T15:23:05;19.60;89.60
11426;DHT22;5769;47.998;7.788;2023-06-05T15:25:33;19.60;89.60
11426;DHT22;5769;47.998;7.788;2023-06-05T15:28:00;19.50;89.60
11426;DHT22;5769;47.998;7.788;2023-06-05T15:30:27;19.50;89.70
11426;DHT22;5769;47.998;7.788;2023-06-05T15:32:54;19.60;89.80
11426;DHT22;5769;47.998;7.788;2023-06-05T15:35:20;19.50;89.80
11426;DHT22;5769;47.998;7.788;2023-06-05T15:37:47;19.70;90.20
11426;DHT22;5769;47.998;7.788;2023-06-05T15:40:14;19.60;89.80
11426;DHT22;5769;47.998;7.788;2023-06-05T15:42:42;19.60;89.90
11426;DHT22;5769;47.998;7.788;2023-06-05T15:45:10;19.50;89.80
11426;DHT22;5769;47.998;7.788;2023-06-05T15:47:38;19.50;89.80
11426;DHT22;5769;47.998;7.788;2023-06-05T15:50:06;19.50;90.20
11426;DHT22;5769;47.998;7.788;2023-06-05T15:52:33;19.50;89.80